Time;durP1;ratioP1;P1;durP2;ratioP2;P2;SDS_P1;SDS_P2;PMS_P1;PMS_P2;Temp;Humidity;BMP_temperature;BMP_pressure;BME280_temperature;BME280_humidity;BME280_pressure;Samples;Min_cycle;Max_cycle;Signal;HPM_P1;HPM_P2
2022/05/02 00:00:24;;;;;;;16.10;14.70;;;13.10;70.00;;;;;;5081158;28;20453;-70
2022/05/02 00:02:52;;;;;;;15.63;14.27;;;13.10;70.00;;;;;;5079537;28;20987;-70
2022/05/02 00:05:19;;;;;;;15.50;14.10;;;13.00;70.10;;;;;;5077863;28;20460;-70
2022/05/02 00:07:46;;;;;;;16.67;14.90;;;13.00;70.30;;;;;;5078370;28;20484;-70
2022/05/02 00:10:14;;;;;;;16.33;14.73;;;13.00;70.40;;;;;;5078341;28;20448;-70
2022/05/02 00:12:42;;;;;;;17.27;15.57;;;12.90;70.50;;;;;;5078693;28;20472;-70
2022/05/02 00:15:09;;;;;;;16.27;14.70;;;12.90;70.90;;;;;;5078145;28;20491;-70
2022/05/02 00:20:21;;;;;;;15.63;14.17;;;12.80;71.60;;;;;;5078224;28;20400;-70
2022/05/02 00:22:48;;;;;;;15.83;14.37;;;12.80;71.60;;;;;;5079125;28;20491;-70
2022/05/02 00:25:17;;;;;;;15.73;14.13;;;12.80;71.70;;;;;;5078106;28;20449;-70
2022/05/02 00:27:44;;;;;;;15.23;13.83;;;12.70;71.80;;;;;;5078343;28;20489;-70
2022/05/02 00:30:12;;;;;;;15.67;14.07;;;12.70;72.80;;;;;;5077503;28;20449;-70
2022/05/02 00:32:40;;;;;;;14.97;13.60;;;12.70;72.20;;;;;;5078180;28;20460;-70
2022/05/02 00:35:08;;;;;;;15.00;13.43;;;12.60;72.40;;;;;;5077693;28;20449;-70
2022/05/02 00:37:36;;;;;;;15.53;13.80;;;12.70;72.70;;;;;;5076827;28;20461;-70
2022/05/02 00:40:03;;;;;;;14.80;13.27;;;12.60;72.70;;;;;;5077272;28;20457;-70
2022/05/02 00:42:31;;;;;;;13.63;12.23;;;12.60;72.60;;;;;;5077552;28;20995;-69
2022/05/02 00:44:58;;;;;;;14.90;13.60;;;12.60;72.50;;;;;;5078430;28;20461;-69
2022/05/02 00:47:25;;;;;;;15.27;13.87;;;12.60;72.50;;;;;;5077273;28;20480;-70
2022/05/02 00:49:52;;;;;;;17.50;13.70;;;12.50;72.60;;;;;;5077692;28;20531;-70
2022/05/02 00:52:20;;;;;;;16.40;13.87;;;12.50;72.60;;;;;;5077031;28;20491;-70
2022/05/02 00:54:47;;;;;;;13.70;12.40;;;12.40;72.80;;;;;;5076819;28;20448;-70
2022/05/02 00:57:15;;;;;;;16.07;13.60;;;12.40;73.10;;;;;;5077745;28;20478;-69
2022/05/02 00:59:44;;;;;;;13.70;12.50;;;12.40;73.30;;;;;;5077551;28;20452;-70
2022/05/02 01:02:13;;;;;;;14.83;13.53;;;12.40;73.20;;;;;;5077411;28;20465;-70
2022/05/02 01:04:41;;;;;;;14.70;13.27;;;12.40;73.20;;;;;;5077081;28;20476;-70
2022/05/02 01:07:11;;;;;;;14.87;13.43;;;12.30;73.20;;;;;;5076423;28;20492;-70
2022/05/02 01:09:41;;;;;;;15.20;13.80;;;12.30;73.50;;;;;;5076352;28;20488;-70
2022/05/02 01:12:10;;;;;;;14.67;13.30;;;12.30;73.90;;;;;;5076582;28;20480;-70
2022/05/02 01:14:37;;;;;;;16.53;14.93;;;12.30;73.90;;;;;;5075725;28;20448;-70
2022/05/02 01:17:07;;;;;;;15.13;13.63;;;12.30;74.00;;;;;;5076731;28;20444;-70
2022/05/02 01:19:34;;;;;;;14.03;12.63;;;12.30;74.10;;;;;;5076541;28;20476;-70
2022/05/02 01:22:04;;;;;;;14.77;13.27;;;12.30;74.00;;;;;;5075985;28;20464;-70
2022/05/02 01:24:36;;;;;;;14.80;13.17;;;12.30;74.00;;;;;;5076267;28;20445;-70
2022/05/02 01:27:04;;;;;;;13.27;12.10;;;12.30;73.80;;;;;;5076222;28;20495;-69
2022/05/02 01:29:32;;;;;;;14.97;13.47;;;12.20;73.70;;;;;;5076610;28;20457;-69
2022/05/02 01:31:59;;;;;;;14.13;12.73;;;12.20;73.60;;;;;;5077000;28;20496;-70
2022/05/02 01:34:25;;;;;;;14.97;13.57;;;12.20;73.80;;;;;;5075913;28;20825;-70
2022/05/02 01:36:52;;;;;;;14.57;13.23;;;12.20;74.00;;;;;;5076327;28;20440;-70
2022/05/02 01:39:20;;;;;;;14.60;13.10;;;12.20;74.10;;;;;;5074806;28;20455;-70
2022/05/02 01:41:48;;;;;;;15.20;12.80;;;12.10;74.00;;;;;;5076649;28;20486;-70
2022/05/02 01:44:14;;;;;;;13.23;12.00;;;12.00;74.00;;;;;;5075672;28;20535;-70
2022/05/02 01:46:42;;;;;;;13.90;12.43;;;12.00;74.40;;;;;;5075885;28;20448;-70
2022/05/02 01:49:09;;;;;;;14.40;13.03;;;12.00;74.70;;;;;;5076220;28;20460;-70
2022/05/02 01:51:35;;;;;;;14.87;13.47;;;12.00;75.00;;;;;;5076030;28;20469;-70
2022/05/02 01:54:02;;;;;;;14.20;12.93;;;12.00;75.20;;;;;;5075548;28;20463;-70
2022/05/02 01:56:30;;;;;;;14.40;13.10;;;12.00;75.20;;;;;;5075687;28;20449;-70
2022/05/02 01:58:57;;;;;;;14.40;13.20;;;12.00;75.30;;;;;;5075715;28;20448;-70
2022/05/02 02:01:24;;;;;;;20.90;14.13;;;12.00;75.30;;;;;;5075464;28;20464;-70
2022/05/02 02:03:51;;;;;;;14.90;13.40;;;11.90;75.40;;;;;;5075807;28;20453;-70
2022/05/02 02:06:16;;;;;;;17.90;13.70;;;11.90;75.60;;;;;;5075848;28;20448;-70
2022/05/02 02:08:44;;;;;;;14.63;13.33;;;11.90;75.90;;;;;;5075501;28;20983;-69
2022/05/02 02:11:12;;;;;;;14.87;13.47;;;11.90;76.20;;;;;;5075805;28;20228;-70
2022/05/02 02:13:40;;;;;;;15.00;12.80;;;11.90;76.10;;;;;;5075257;28;20456;-70
2022/05/02 02:16:09;;;;;;;14.83;13.33;;;11.80;76.00;;;;;;5075516;28;20444;-69
2022/05/02 02:18:38;;;;;;;14.50;13.00;;;11.80;76.30;;;;;;5076130;28;20456;-69
2022/05/02 02:21:05;;;;;;;13.70;12.40;;;11.80;76.60;;;;;;5075545;28;20507;-70
2022/05/02 02:23:32;;;;;;;15.17;13.67;;;11.80;77.00;;;;;;5075601;28;20818;-69
2022/05/02 02:25:59;;;;;;;17.17;13.70;;;11.80;77.20;;;;;;5074886;28;20524;-70
2022/05/02 02:28:26;;;;;;;16.30;14.60;;;11.80;77.40;;;;;;5074791;28;20500;-69
2022/05/02 02:30:54;;;;;;;16.40;14.73;;;11.80;77.80;;;;;;5074827;28;20848;-69
2022/05/02 02:33:21;;;;;;;15.70;14.20;;;11.80;78.10;;;;;;5075067;28;20456;-69
2022/05/02 02:35:48;;;;;;;14.93;13.53;;;11.80;78.50;;;;;;5075185;28;20461;-69
2022/05/02 02:38:15;;;;;;;19.10;15.00;;;11.80;78.50;;;;;;5075377;28;20459;-69
2022/05/02 02:40:43;;;;;;;16.10;14.43;;;11.80;78.40;;;;;;5075701;28;20448;-70
2022/05/02 02:43:10;;;;;;;17.27;15.57;;;11.80;78.60;;;;;;5075495;28;20465;-70
2022/05/02 02:45:37;;;;;;;16.37;14.67;;;11.70;78.80;;;;;;5075560;28;20935;-69
2022/05/02 02:48:06;;;;;;;19.03;17.13;;;11.80;79.10;;;;;;5075930;28;20491;-70
2022/05/02 02:50:33;;;;;;;16.97;15.00;;;11.80;79.30;;;;;;5075173;28;20448;-69
2022/05/02 02:53:00;;;;;;;18.33;16.50;;;11.80;79.60;;;;;;5074696;28;20510;-70
2022/05/02 02:55:27;;;;;;;19.93;15.97;;;11.80;79.80;;;;;;5075623;28;20441;-69
2022/05/02 02:57:54;;;;;;;18.47;16.60;;;11.80;79.80;;;;;;5074765;28;21001;-69
2022/05/02 03:00:21;;;;;;;16.07;14.53;;;11.80;79.90;;;;;;5074999;28;20448;-70
2022/05/02 03:02:50;;;;;;;17.03;15.40;;;11.80;80.10;;;;;;5074975;28;20477;-69
2022/05/02 03:08:03;;;;;;;18.87;16.40;;;11.80;80.60;;;;;;5075223;28;20832;-69
2022/05/02 03:10:31;;;;;;;17.80;15.93;;;11.80;80.60;;;;;;5075610;28;20916;-69
2022/05/02 03:12:58;;;;;;;17.53;15.80;;;11.70;80.70;;;;;;5074698;28;20459;-69
2022/05/02 03:15:25;;;;;;;19.93;17.77;;;11.70;81.00;;;;;;5074805;28;20453;-69
2022/05/02 03:17:52;;;;;;;18.77;17.00;;;11.70;82.10;;;;;;5074766;28;20444;-69
2022/05/02 03:20:20;;;;;;;21.03;16.90;;;11.70;81.90;;;;;;5075101;28;20460;-69
2022/05/02 03:22:47;;;;;;;20.30;18.30;;;11.80;82.80;;;;;;5075143;28;20865;-69
2022/05/02 03:25:14;;;;;;;19.33;17.37;;;11.80;82.10;;;;;;5074925;28;20455;-69
2022/05/02 03:27:41;;;;;;;21.33;19.33;;;11.80;82.30;;;;;;5075120;28;20480;-69
2022/05/02 03:30:09;;;;;;;20.80;18.60;;;11.80;82.40;;;;;;5075399;28;20486;-69
2022/05/02 03:32:35;;;;;;;20.90;18.63;;;11.80;82.50;;;;;;5075125;28;20473;-69
2022/05/02 03:35:02;;;;;;;20.37;18.37;;;11.80;83.10;;;;;;5074474;28;20940;-69
2022/05/02 03:37:30;;;;;;;21.50;19.33;;;11.80;83.00;;;;;;5074832;28;20459;-69
2022/05/02 03:39:57;;;;;;;20.40;18.30;;;11.80;83.00;;;;;;5077764;28;20439;-69
2022/05/02 03:42:23;;;;;;;22.67;17.97;;;11.80;83.10;;;;;;5078434;28;20469;-69
2022/05/02 03:44:51;;;;;;;22.10;19.87;;;11.80;82.90;;;;;;5078719;28;20460;-69
2022/05/02 03:47:18;;;;;;;22.40;20.07;;;11.80;83.10;;;;;;5078247;28;20448;-69
2022/05/02 03:49:45;;;;;;;21.80;19.50;;;11.80;83.30;;;;;;5078182;28;20452;-69
2022/05/02 03:52:12;;;;;;;21.73;19.20;;;11.80;83.40;;;;;;5078146;28;20491;-69
2022/05/02 03:54:40;;;;;;;21.87;19.73;;;11.90;83.60;;;;;;5078504;28;20445;-69
2022/05/02 03:57:07;;;;;;;21.47;19.27;;;11.90;83.60;;;;;;5078736;28;20502;-69
2022/05/02 03:59:34;;;;;;;21.60;19.50;;;11.90;83.60;;;;;;5077980;28;20448;-69
2022/05/02 04:02:01;;;;;;;22.40;20.07;;;11.90;83.60;;;;;;5078048;28;20869;-70
2022/05/02 04:04:28;;;;;;;24.27;19.97;;;11.90;83.80;;;;;;5077817;28;21000;-69
2022/05/02 04:06:54;;;;;;;22.10;19.87;;;11.80;83.70;;;;;;5077873;28;20456;-70
2022/05/02 04:09:21;;;;;;;21.40;19.20;;;11.80;84.10;;;;;;5078180;28;20480;-69
2022/05/02 04:11:50;;;;;;;20.63;18.43;;;11.80;84.10;;;;;;5077853;28;20825;-69
2022/05/02 04:14:16;;;;;;;21.40;19.43;;;11.80;84.10;;;;;;5076863;28;20461;-69
2022/05/02 04:16:43;;;;;;;25.87;19.90;;;11.80;84.00;;;;;;5077210;28;20519;-69
2022/05/02 04:19:10;;;;;;;25.80;20.37;;;11.80;83.80;;;;;;5077036;28;20449;-69
2022/05/02 04:21:37;;;;;;;21.57;19.40;;;11.90;83.90;;;;;;5076700;28;20475;-70
2022/05/02 04:24:04;;;;;;;23.50;21.20;;;11.90;84.10;;;;;;5077967;28;20455;-69
2022/05/02 04:26:31;;;;;;;24.57;22.17;;;11.90;84.00;;;;;;5078138;28;20436;-69
2022/05/02 04:29:02;;;;;;;22.73;19.80;;;11.80;83.90;;;;;;5077967;28;20537;-69
2022/05/02 04:31:28;;;;;;;21.23;19.20;;;11.90;84.10;;;;;;5077455;28;20472;-69
2022/05/02 04:33:55;;;;;;;23.90;19.97;;;11.90;84.10;;;;;;5077236;28;20440;-68
2022/05/02 04:36:22;;;;;;;23.30;21.00;;;11.90;84.20;;;;;;5077176;28;20948;-68
2022/05/02 04:38:49;;;;;;;24.93;18.53;;;11.90;84.10;;;;;;5077207;28;20494;-68
2022/05/02 04:41:16;;;;;;;21.00;18.40;;;11.90;84.10;;;;;;5076564;28;20464;-69
2022/05/02 04:43:43;;;;;;;21.53;19.40;;;11.90;84.00;;;;;;5076335;28;20525;-70
2022/05/02 04:46:11;;;;;;;21.67;18.97;;;12.00;84.10;;;;;;5076321;28;20844;-69
2022/05/02 04:48:38;;;;;;;21.70;19.17;;;12.00;84.10;;;;;;5076414;28;20518;-69
2022/05/02 04:51:04;;;;;;;20.97;18.87;;;12.00;84.40;;;;;;5076431;28;20477;-69
2022/05/02 04:53:31;;;;;;;20.67;18.57;;;12.00;84.20;;;;;;5076238;28;20467;-69
2022/05/02 04:55:58;;;;;;;19.97;17.93;;;12.00;84.20;;;;;;5075874;28;20482;-69
2022/05/02 04:58:25;;;;;;;22.70;19.83;;;12.00;84.40;;;;;;5076453;28;20449;-69
2022/05/02 05:00:53;;;;;;;21.40;19.30;;;12.10;84.30;;;;;;5076478;28;20464;-69
2022/05/02 05:03:21;;;;;;;19.50;17.47;;;12.10;84.40;;;;;;5076220;28;20440;-69
2022/05/02 05:05:48;;;;;;;21.07;19.03;;;12.20;84.50;;;;;;5077244;28;20527;-69
2022/05/02 05:08:16;;;;;;;20.17;18.30;;;12.20;84.70;;;;;;5075857;28;20480;-69
2022/05/02 05:10:49;;;;;;;21.27;18.93;;;12.20;84.50;;;;;;5075857;28;20466;-69
2022/05/02 05:13:20;;;;;;;20.90;18.73;;;12.20;84.70;;;;;;5075802;28;20486;-69
2022/05/02 05:16:20;;;;;;;19.93;17.90;;;12.20;84.80;;;;;;5075682;28;21033;-69
2022/05/02 05:19:03;;;;;;;21.53;19.33;;;12.30;84.60;;;;;;5075446;28;20480;-69
2022/05/02 05:21:45;;;;;;;20.20;18.30;;;12.30;84.30;;;;;;5075529;28;20473;-69
2022/05/02 05:24:53;;;;;;;19.30;17.40;;;12.30;84.20;;;;;;5076175;28;20444;-69
2022/05/02 05:27:40;;;;;;;18.80;16.97;;;12.40;83.90;;;;;;5075571;28;20444;-69
2022/05/02 05:30:08;;;;;;;22.77;18.77;;;12.40;83.50;;;;;;5075142;28;20468;-69
2022/05/02 05:32:43;;;;;;;20.30;17.97;;;12.50;83.80;;;;;;5075213;28;20475;-69
2022/05/02 05:35:15;;;;;;;23.73;19.13;;;12.50;84.00;;;;;;5075156;28;20439;-69
2022/05/02 05:38:01;;;;;;;20.13;18.00;;;12.60;83.80;;;;;;5074987;28;20425;-69
2022/05/02 05:40:36;;;;;;;21.13;19.00;;;12.60;83.50;;;;;;5075036;28;20455;-69
2022/05/02 05:43:24;;;;;;;20.50;18.40;;;12.60;83.00;;;;;;5074917;28;20479;-69
2022/05/02 05:46:06;;;;;;;21.13;18.90;;;12.60;82.30;;;;;;5074447;28;20429;-69
2022/05/02 05:48:44;;;;;;;20.07;18.07;;;12.70;82.10;;;;;;5074423;28;20997;-69
2022/05/02 05:51:27;;;;;;;20.13;18.23;;;12.70;82.40;;;;;;5074957;28;20472;-69
2022/05/02 05:54:01;;;;;;;19.60;16.50;;;12.80;82.50;;;;;;5075256;28;20437;-69
2022/05/02 05:56:43;;;;;;;18.10;16.20;;;12.90;82.10;;;;;;5075043;28;20455;-69
2022/05/02 05:59:15;;;;;;;20.60;18.60;;;12.90;81.90;;;;;;5074658;28;20452;-69
2022/05/02 06:01:54;;;;;;;19.90;17.90;;;13.00;81.90;;;;;;5074091;28;20547;-69
2022/05/02 06:04:25;;;;;;;17.90;16.20;;;13.00;82.40;;;;;;5074877;28;20440;-69
2022/05/02 06:06:55;;;;;;;18.83;16.57;;;13.10;82.00;;;;;;5074576;28;20429;-69
2022/05/02 06:09:22;;;;;;;18.10;16.30;;;13.20;81.40;;;;;;5074587;28;20472;-69
2022/05/02 06:11:51;;;;;;;20.43;18.27;;;13.30;81.30;;;;;;5074345;28;21002;-69
2022/05/02 06:14:22;;;;;;;23.33;17.13;;;13.30;80.90;;;;;;5074326;28;20452;-69
2022/05/02 06:19:36;;;;;;;18.80;16.90;;;13.40;80.00;;;;;;5074229;28;20467;-69
2022/05/02 06:22:05;;;;;;;19.80;17.90;;;13.50;79.50;;;;;;5074007;28;20469;-69
2022/05/02 06:24:35;;;;;;;19.97;16.90;;;13.50;78.90;;;;;;5074339;28;20521;-69
2022/05/02 06:27:03;;;;;;;20.50;18.33;;;13.50;78.80;;;;;;5074306;28;20448;-69
2022/05/02 06:29:30;;;;;;;18.87;16.97;;;13.60;78.60;;;;;;5074543;28;20476;-69
2022/05/02 06:31:59;;;;;;;20.00;17.90;;;13.60;78.00;;;;;;5074430;28;20469;-69
2022/05/02 06:34:28;;;;;;;18.47;16.57;;;13.70;78.60;;;;;;5074246;28;20453;-69
2022/05/02 06:37:00;;;;;;;17.43;15.73;;;13.80;78.70;;;;;;5074388;28;20448;-69
2022/05/02 06:39:48;;;;;;;19.07;17.13;;;13.90;78.30;;;;;;5074171;28;20421;-69
2022/05/02 06:42:25;;;;;;;17.20;15.50;;;14.10;78.30;;;;;;5073908;28;20469;-69
2022/05/02 06:45:07;;;;;;;18.03;16.27;;;14.20;77.80;;;;;;5074251;28;20468;-69
2022/05/02 06:47:45;;;;;;;18.10;16.30;;;14.40;77.30;;;;;;5074606;28;20436;-69
2022/05/02 06:50:14;;;;;;;20.40;16.37;;;14.50;76.30;;;;;;5075201;28;20486;-69
2022/05/02 06:52:51;;;;;;;18.30;16.37;;;14.60;75.70;;;;;;5075067;28;20495;-69
2022/05/02 06:55:29;;;;;;;17.00;15.50;;;14.80;75.80;;;;;;5075049;28;20436;-69
2022/05/02 06:58:12;;;;;;;15.90;14.40;;;14.90;74.20;;;;;;5075030;28;20436;-69
2022/05/02 07:00:50;;;;;;;22.00;15.70;;;15.00;73.60;;;;;;5074686;28;20483;-69
2022/05/02 07:03:37;;;;;;;19.67;15.70;;;15.10;73.50;;;;;;5074959;28;20440;-69
2022/05/02 07:06:09;;;;;;;16.40;14.80;;;15.30;73.50;;;;;;5074291;28;20494;-69
2022/05/02 07:08:43;;;;;;;16.50;14.90;;;15.40;72.30;;;;;;5075100;28;20479;-69
2022/05/02 07:11:19;;;;;;;15.83;14.13;;;15.50;71.60;;;;;;5074061;28;20516;-68
2022/05/02 07:13:54;;;;;;;14.47;12.97;;;15.60;70.50;;;;;;5078172;28;20439;-69
2022/05/02 07:16:23;;;;;;;17.60;15.50;;;15.70;69.80;;;;;;5077809;28;20807;-69
2022/05/02 07:19:29;;;;;;;16.70;14.73;;;15.90;69.40;;;;;;5077784;28;20479;-69
2022/05/02 07:22:00;;;;;;;16.60;15.00;;;16.10;69.40;;;;;;5015885;28;20474;-69
2022/05/02 07:24:47;;;;;;;17.07;15.30;;;16.20;67.90;;;;;;5068617;28;20448;-69
2022/05/02 07:27:39;;;;;;;14.80;13.33;;;16.40;67.20;;;;;;5078205;28;20854;-69
2022/05/02 07:30:07;;;;;;;21.27;13.30;;;16.50;66.50;;;;;;5077181;28;20971;-69
2022/05/02 07:32:36;;;;;;;15.87;14.30;;;16.80;66.20;;;;;;5077442;28;20465;-69
2022/05/02 07:35:03;;;;;;;15.87;14.23;;;16.90;65.40;;;;;;5078136;28;20489;-69
2022/05/02 07:37:32;;;;;;;13.20;11.90;;;17.10;64.70;;;;;;5078179;28;20437;-69
2022/05/02 07:40:00;;;;;;;15.23;13.80;;;17.20;62.80;;;;;;5078542;28;20447;-69
2022/05/02 07:42:31;;;;;;;16.90;15.17;;;17.40;62.90;;;;;;5077758;28;21001;-69
2022/05/02 07:45:01;;;;;;;14.90;13.40;;;17.50;62.60;;;;;;5077208;28;20456;-69
2022/05/02 07:47:32;;;;;;;13.60;12.27;;;17.60;62.20;;;;;;5077404;28;20460;-69
2022/05/02 07:50:02;;;;;;;13.03;11.73;;;17.80;61.90;;;;;;5076533;28;20476;-69
2022/05/02 07:52:29;;;;;;;13.53;12.23;;;17.90;60.80;;;;;;5078614;28;20483;-69
2022/05/02 07:55:01;;;;;;;15.77;13.00;;;18.20;60.40;;;;;;5083905;28;20548;-69
2022/05/02 07:57:36;;;;;;;11.97;10.77;;;18.40;60.10;;;;;;5082323;28;20448;-69
2022/05/02 08:00:07;;;;;;;11.90;10.57;;;18.60;59.30;;;;;;5082256;28;20432;-70
2022/05/02 08:02:34;;;;;;;12.70;11.57;;;18.80;58.20;;;;;;5083157;28;20496;-70
2022/05/02 08:05:01;;;;;;;20.17;12.17;;;19.00;57.40;;;;;;5083795;28;20817;-69
2022/05/02 08:07:33;;;;;;;12.73;11.40;;;19.20;56.90;;;;;;5085302;28;20445;-69
2022/05/02 08:10:39;;;;;;;10.90;9.90;;;19.40;56.30;;;;;;5090930;28;20468;-70
2022/05/02 08:13:19;;;;;;;11.63;10.47;;;19.60;56.00;;;;;;5096282;28;20441;-70
2022/05/02 08:15:55;;;;;;;14.63;11.17;;;19.70;55.10;;;;;;5088701;28;20429;-70
2022/05/02 08:18:59;;;;;;;10.33;9.30;;;19.90;54.40;;;;;;5084677;28;20427;-70
2022/05/02 08:21:30;;;;;;;14.30;12.20;;;20.10;54.60;;;;;;5085333;28;20475;-70
2022/05/02 08:27:28;;;;;;;10.90;10.00;;;20.30;52.70;;;;;;5085214;28;20400;-70
2022/05/02 08:30:06;;;;;;;13.87;10.10;;;20.50;53.00;;;;;;5085404;28;21001;-69
2022/05/02 08:32:41;;;;;;;11.67;10.43;;;20.60;52.10;;;;;;5084888;28;20478;-69
2022/05/02 08:35:10;;;;;;;12.17;10.87;;;20.80;51.80;;;;;;5085892;28;20432;-69
2022/05/02 08:37:58;;;;;;;13.10;10.50;;;21.00;51.60;;;;;;5085462;28;20448;-69
2022/05/02 08:41:03;;;;;;;13.43;10.60;;;21.10;50.80;;;;;;5085751;28;20441;-70
2022/05/02 08:44:27;;;;;;;11.50;9.30;;;21.30;49.90;;;;;;5085217;28;20492;-70
2022/05/02 08:47:31;;;;;;;15.10;9.73;;;21.50;50.20;;;;;;5084469;28;20429;-69
2022/05/02 08:50:27;;;;;;;13.40;10.50;;;21.70;49.00;;;;;;5083663;28;20484;-70
2022/05/02 08:53:37;;;;;;;14.50;10.93;;;21.90;47.80;;;;;;5084383;28;20471;-70
2022/05/02 08:56:33;;;;;;;11.70;10.33;;;22.10;46.30;;;;;;5084154;28;20465;-70
2022/05/02 08:59:33;;;;;;;10.57;9.40;;;22.20;47.80;;;;;;5083551;28;20445;-69
2022/05/02 09:02:33;;;;;;;11.27;10.20;;;22.40;48.00;;;;;;5083711;28;20465;-70
2022/05/02 09:05:38;;;;;;;9.27;8.37;;;22.50;47.70;;;;;;5083229;28;20445;-71
2022/05/02 09:08:45;;;;;;;10.90;9.57;;;22.80;46.40;;;;;;5000938;28;20451;-70
2022/05/02 09:11:33;;;;;;;10.37;8.00;;;23.00;46.00;;;;;;5083213;28;20488;-69
2022/05/02 09:14:39;;;;;;;11.03;9.00;;;23.30;45.40;;;;;;5082957;28;20437;-69
2022/05/02 09:17:35;;;;;;;8.30;7.20;;;23.50;44.40;;;;;;5082243;28;20527;-70
2022/05/02 09:20:48;;;;;;;9.30;8.43;;;23.70;44.50;;;;;;5082246;28;20449;-70
2022/05/02 09:23:51;;;;;;;7.77;6.97;;;24.00;43.90;;;;;;5082040;28;20459;-69
2022/05/02 09:26:58;;;;;;;10.27;7.10;;;24.20;42.60;;;;;;5082227;28;20453;-70
2022/05/02 09:29:56;;;;;;;8.63;7.70;;;24.40;42.00;;;;;;5080934;28;20491;-70
2022/05/02 09:32:46;;;;;;;9.67;8.60;;;24.50;42.10;;;;;;5080887;28;20465;-70
2022/05/02 09:35:18;;;;;;;12.43;9.77;;;24.70;41.60;;;;;;5080001;28;20912;-70
2022/05/02 09:37:56;;;;;;;9.53;8.50;;;24.90;40.70;;;;;;5080326;28;20977;-70
2022/05/02 09:40:33;;;;;;;13.00;9.90;;;25.10;40.80;;;;;;5080689;28;20424;-71
2022/05/02 09:43:13;;;;;;;8.90;7.87;;;25.30;40.80;;;;;;5080074;28;20437;-70
2022/05/02 09:52:09;;;;;;;10.73;9.63;;;25.80;39.20;;;;;;5080200;28;20464;-72
2022/05/02 09:57:56;;;;;;;9.27;8.37;;;26.30;38.40;;;;;;5080199;28;20404;-70
2022/05/02 10:03:23;;;;;;;12.73;9.40;;;27.10;36.30;;;;;;5086963;28;20922;-70
2022/05/02 10:05:57;;;;;;;10.10;9.10;;;27.10;35.00;;;;;;5081102;28;20908;-70
2022/05/02 10:08:34;;;;;;;10.47;9.47;;;27.30;35.00;;;;;;5081598;28;20420;-70
2022/05/02 10:11:09;;;;;;;13.70;11.27;;;27.60;35.20;;;;;;5081080;28;20488;-71
2022/05/02 10:13:52;;;;;;;14.60;8.83;;;28.00;34.60;;;;;;5081263;28;20463;-71
2022/05/02 10:16:33;;;;;;;12.23;10.90;;;28.40;33.20;;;;;;5080067;28;20429;-71
2022/05/02 10:19:20;;;;;;;13.90;8.53;;;28.60;31.80;;;;;;5079678;28;20451;-69
2022/05/02 10:22:12;;;;;;;10.80;9.70;;;28.70;32.20;;;;;;5079910;28;20456;-71
2022/05/02 10:25:02;;;;;;;11.50;8.10;;;29.20;31.80;;;;;;5080381;28;20528;-71
2022/05/02 10:27:41;;;;;;;11.13;8.60;;;29.80;31.00;;;;;;5079187;28;20432;-70
2022/05/02 10:30:12;;;;;;;10.27;9.37;;;30.40;29.90;;;;;;5079919;28;20511;-72
2022/05/02 10:32:44;;;;;;;11.43;10.40;;;30.80;29.50;;;;;;5079378;28;20472;-68
2022/05/02 10:35:13;;;;;;;11.30;10.30;;;31.30;28.40;;;;;;5082906;28;20540;-68
2022/05/02 10:37:43;;;;;;;10.40;8.77;;;31.30;26.80;;;;;;5080048;28;20471;-68
2022/05/02 10:40:13;;;;;;;10.30;7.83;;;31.40;27.60;;;;;;5080573;28;20444;-69
2022/05/02 10:42:49;;;;;;;10.40;8.40;;;31.80;27.80;;;;;;5081503;28;20488;-68
2022/05/02 10:45:17;;;;;;;9.77;8.87;;;32.40;27.00;;;;;;5082717;28;20428;-67
2022/05/02 10:47:51;;;;;;;11.70;10.60;;;32.90;26.20;;;;;;5081003;28;20440;-67
2022/05/02 10:50:21;;;;;;;11.80;10.73;;;33.50;25.60;;;;;;5081233;28;20860;-68
2022/05/02 10:52:55;;;;;;;11.57;10.37;;;34.00;24.90;;;;;;5082478;28;20471;-69
2022/05/02 10:55:27;;;;;;;11.03;10.00;;;34.60;24.10;;;;;;5085040;28;20448;-69
2022/05/02 10:57:55;;;;;;;13.93;12.63;;;34.90;23.60;;;;;;5084436;28;20427;-68
2022/05/02 11:00:23;;;;;;;13.67;12.17;;;35.10;22.20;;;;;;5084650;28;20452;-69
2022/05/02 11:03:00;;;;;;;13.97;12.33;;;35.30;22.30;;;;;;5083249;28;20855;-67
2022/05/02 11:05:28;;;;;;;10.10;9.10;;;35.50;22.00;;;;;;5083843;28;20935;-67
2022/05/02 11:08:06;;;;;;;10.37;9.30;;;35.60;22.00;;;;;;5082672;28;20451;-67
2022/05/02 11:10:40;;;;;;;8.63;7.90;;;35.80;22.40;;;;;;5083760;28;20475;-69
2022/05/02 11:13:12;;;;;;;9.07;8.17;;;36.10;22.20;;;;;;5083609;28;20421;-68
2022/05/02 11:15:55;;;;;;;10.07;9.17;;;36.40;21.60;;;;;;5081596;28;20447;-68
2022/05/02 11:21:24;;;;;;;10.90;10.00;;;36.40;19.80;;;;;;5080453;28;20482;-68
2022/05/02 11:24:21;;;;;;;15.93;14.53;;;36.20;20.00;;;;;;5083971;28;20439;-68
2022/05/02 11:26:56;;;;;;;14.70;13.57;;;36.30;19.60;;;;;;5082269;28;20452;-68
2022/05/02 11:29:33;;;;;;;11.13;9.87;;;36.00;20.20;;;;;;5082052;28;20428;-68
2022/05/02 11:32:04;;;;;;;13.67;12.57;;;36.00;20.30;;;;;;5080778;28;20452;-68
2022/05/02 11:34:43;;;;;;;11.53;10.70;;;36.10;20.60;;;;;;5080770;28;20435;-68
2022/05/02 11:37:20;;;;;;;13.03;11.93;;;36.30;20.70;;;;;;5080095;28;20443;-68
2022/05/02 11:39:59;;;;;;;12.83;11.67;;;36.70;20.40;;;;;;5079851;28;20432;-69
2022/05/02 11:42:29;;;;;;;11.47;10.40;;;36.80;19.90;;;;;;5079549;28;20221;-68
2022/05/02 11:45:07;;;;;;;11.70;10.50;;;36.50;19.60;;;;;;5080059;28;20471;-68
2022/05/02 11:47:52;;;;;;;14.13;13.07;;;36.60;20.50;;;;;;5080208;28;20193;-69
2022/05/02 11:50:23;;;;;;;11.80;10.80;;;36.90;20.00;;;;;;5079860;28;20202;-69
2022/05/02 11:52:53;;;;;;;9.67;8.77;;;37.40;20.60;;;;;;5079372;28;20234;-69
2022/05/02 11:55:28;;;;;;;11.70;10.50;;;37.90;19.80;;;;;;5078776;28;20233;-69
2022/05/02 11:58:02;;;;;;;10.65;9.65;;;38.30;19.20;;;;;;5079395;28;20189;-68
2022/05/02 12:00:33;;;;;;;12.55;8.75;;;38.40;19.10;;;;;;5082423;28;20182;-69
2022/05/02 12:03:05;;;;;;;13.15;11.95;;;38.70;19.20;;;;;;5082750;28;20264;-69
2022/05/02 12:05:37;;;;;;;11.57;10.60;;;39.00;17.40;;;;;;5094839;28;20186;-69
2022/05/02 12:08:06;;;;;;;13.55;12.27;;;39.00;17.30;;;;;;5084293;28;20194;-70
2022/05/02 12:10:36;;;;;;;13.70;12.60;;;39.00;17.30;;;;;;5082788;28;20247;-68
2022/05/02 12:13:05;;;;;;;10.05;9.15;;;38.80;17.30;;;;;;5082923;28;20628;-68
2022/05/02 12:15:32;;;;;;;10.40;9.35;;;38.70;17.50;;;;;;5083275;28;20208;-68
2022/05/02 12:18:03;;;;;;;8.27;7.07;;;39.00;18.50;;;;;;5082333;28;20201;-70
2022/05/02 12:20:33;;;;;;;8.57;7.78;;;39.30;18.20;;;;;;5082730;28;20728;-69
2022/05/02 12:23:06;;;;;;;11.30;10.40;;;39.70;18.10;;;;;;5093355;28;20317;-69
2022/05/02 12:25:36;;;;;;;14.65;12.18;;;39.50;17.70;;;;;;5096397;28;20200;-69
2022/05/02 12:28:05;;;;;;;9.18;8.38;;;39.00;17.20;;;;;;5088870;28;20210;-69
2022/05/02 12:30:34;;;;;;;10.23;9.35;;;38.90;17.30;;;;;;5086298;28;20252;-68
2022/05/02 12:33:03;;;;;;;15.80;9.55;;;39.00;17.50;;;;;;5083423;28;20227;-69
2022/05/02 12:35:39;;;;;;;10.27;9.15;;;39.20;17.80;;;;;;5083915;28;20214;-69
2022/05/02 12:38:15;;;;;;;13.25;9.13;;;39.60;17.90;;;;;;5082973;28;20292;-69
2022/05/02 12:40:51;;;;;;;12.85;11.85;;;40.20;17.40;;;;;;5083232;28;20190;-71
2022/05/02 12:43:26;;;;;;;13.70;12.60;;;40.70;16.30;;;;;;5082186;28;20213;-69
2022/05/02 12:45:55;;;;;;;13.73;12.50;;;40.60;15.90;;;;;;5082205;28;20185;-69
2022/05/02 12:48:24;;;;;;;12.63;11.30;;;40.50;15.30;;;;;;5082769;28;20236;-69
2022/05/02 12:50:54;;;;;;;10.50;8.13;;;40.30;15.80;;;;;;5081862;28;20221;-69
2022/05/02 12:56:09;;;;;;;10.75;9.95;;;40.80;17.00;;;;;;5084030;28;20235;-70
2022/05/02 13:01:23;;;;;;;12.82;11.50;;;41.70;15.50;;;;;;5082155;28;20236;-70
2022/05/02 13:03:57;;;;;;;10.98;9.43;;;41.70;14.40;;;;;;5082528;28;20588;-70
2022/05/02 13:06:25;;;;;;;9.82;8.45;;;41.60;15.60;;;;;;5082534;28;20186;-69
2022/05/02 13:09:07;;;;;;;10.18;9.43;;;41.70;15.30;;;;;;5082595;28;20202;-70
2022/05/02 13:11:38;;;;;;;8.93;7.93;;;42.00;15.60;;;;;;5082878;28;20228;-70
2022/05/02 13:14:06;;;;;;;9.18;8.40;;;42.20;15.50;;;;;;5082498;28;20186;-70
2022/05/02 13:16:35;;;;;;;11.15;10.27;;;42.50;15.60;;;;;;5083003;28;20212;-69
2022/05/02 13:19:06;;;;;;;8.40;7.60;;;42.90;14.30;;;;;;5082405;28;20214;-69
2022/05/02 13:21:33;;;;;;;10.57;9.25;;;42.90;14.10;;;;;;5082687;28;20225;-70
2022/05/02 13:24:07;;;;;;;10.10;9.30;;;43.10;14.60;;;;;;5084365;28;20205;-70
2022/05/02 13:27:08;;;;;;;11.82;10.82;;;43.20;13.80;;;;;;5085287;28;20189;-70
2022/05/02 13:29:57;;;;;;;9.02;8.25;;;43.30;13.90;;;;;;5083647;28;20190;-70
2022/05/02 13:32:27;;;;;;;9.20;8.48;;;43.00;14.10;;;;;;5081813;28;20225;-70
2022/05/02 13:35:11;;;;;;;7.47;6.88;;;43.00;14.20;;;;;;5081913;28;20205;-70